Istanbul/Atatürk Airport

Airport
ICAO code: 
LTBA
IATA Code: 
IST
Summary
ICAO Region: 
EUR
Territory: 
Location: 
Yeşilköy, Istanbul
Serving: 
Istanbul
Elevation: 
163 ft
Coordinates: 
Aerial View: 
40° 58' 28.632" N, 28° 48' 35.316" E
Metar
Observation
LTBA 190220Z 34010KT 9999 -SHSN SCT013 BKN025 BKN080 01/M02 Q1027 NOSIG
Station
Istanbul / Ataturk
Date/Time
2022-01-19 02:20:00
Wind direction
340°
Wind speed
10 kts
Lowest cloud amount
scattered clouds
Temperature
1°C
Dew point
-2°C
Humidity
80%
QNH
1027 hPa
Weather condition
light showers snow

Airport serving city of Istanbul. Until April 2019, it was the main international airport serving Istanbul.

Climatology

Dry-summer subtropical ”Mediterranean" climate (Köppen climate classification Csa)

Runways

Designator Length Width Surface Rops
5/23 2600 60 ASP Yes/Yes
17L/35R 3000 45 CON Yes/Yes
17R/35L 3000 45 CON Yes/Yes
Airport map: 
Aerial View: 

SKYbrary Partners:

Safety knowledge contributed by: